createdAt,value
2022-09-24T00:01:36.723Z,5.30
2022-09-24T00:04:07.304Z,5.28
2022-09-24T00:06:37.047Z,5.60
2022-09-24T00:09:04.592Z,5.20
2022-09-24T00:11:32.172Z,5.85
2022-09-24T00:13:59.709Z,5.78
2022-09-24T00:16:29.116Z,4.75
2022-09-24T00:18:56.040Z,5.53
2022-09-24T00:21:26.192Z,5.15
2022-09-24T00:23:55.489Z,5.30
2022-09-24T00:26:41.583Z,5.38
2022-09-24T00:29:10.063Z,5.72
2022-09-24T00:31:37.159Z,4.90
2022-09-24T00:34:04.595Z,5.07
2022-09-24T00:36:31.825Z,4.97
2022-09-24T00:39:00.197Z,5.15
2022-09-24T00:41:31.368Z,5.25
2022-09-24T00:43:59.153Z,4.82
2022-09-24T00:46:40.358Z,5.35
2022-09-24T00:49:20.319Z,4.63
2022-09-24T00:51:49.835Z,6.00
2022-09-24T00:54:22.638Z,4.82
2022-09-24T00:56:51.127Z,5.10
2022-09-24T00:59:21.026Z,5.40
2022-09-24T01:01:49.453Z,4.57
2022-09-24T01:04:21.262Z,4.32
2022-09-24T01:06:51.978Z,4.82
2022-09-24T01:09:24.186Z,5.25
2022-09-24T01:12:29.014Z,4.87
2022-09-24T01:15:21.344Z,4.72
2022-09-24T01:18:09.286Z,4.72
2022-09-24T01:20:56.081Z,4.97
2022-09-24T01:23:37.946Z,4.82
2022-09-24T01:26:19.944Z,4.40
2022-09-24T01:29:44.236Z,4.55
2022-09-24T01:35:07.880Z,5.13
2022-09-24T01:37:37.728Z,4.30
2022-09-24T01:40:07.527Z,4.63
2022-09-24T01:42:35.080Z,4.75
2022-09-24T01:45:02.547Z,3.92
2022-09-24T01:47:41.394Z,4.40
2022-09-24T01:50:11.294Z,4.40
2022-09-24T01:53:02.737Z,4.00
2022-09-24T01:55:38.417Z,4.95
2022-09-24T01:58:14.496Z,4.80
2022-09-24T02:00:45.277Z,4.47
2022-09-24T02:03:17.409Z,4.40
2022-09-24T02:05:55.017Z,4.03
2022-09-24T02:08:26.370Z,3.90
2022-09-24T02:11:14.763Z,4.93
2022-09-24T02:14:07.847Z,4.60
2022-09-24T02:16:39.039Z,4.82
2022-09-24T02:19:10.513Z,4.57
2022-09-24T02:21:40.450Z,4.38
2022-09-24T02:24:24.144Z,4.38
2022-09-24T02:26:51.324Z,4.75
2022-09-24T02:29:20.838Z,4.15
2022-09-24T02:31:52.829Z,4.95
2022-09-24T02:34:25.570Z,4.70
2022-09-24T02:37:03.528Z,4.85
2022-09-24T02:39:30.265Z,4.18
2022-09-24T02:41:58.289Z,5.00
2022-09-24T02:44:25.058Z,4.95
2022-09-24T02:46:51.824Z,4.75
2022-09-24T02:49:18.887Z,4.47
2022-09-24T02:51:45.717Z,5.72
2022-09-24T02:54:12.826Z,5.15
2022-09-24T02:56:39.952Z,4.88
2022-09-24T02:59:07.742Z,5.55
2022-09-24T03:01:35.226Z,5.20
2022-09-24T03:04:02.649Z,4.90
2022-09-24T03:06:30.442Z,5.68
2022-09-24T03:08:57.401Z,5.20
2022-09-24T03:11:25.085Z,5.18
2022-09-24T03:13:52.027Z,5.05
2022-09-24T03:16:20.476Z,5.35
2022-09-24T03:18:47.839Z,5.68
2022-09-24T03:21:17.116Z,5.28
2022-09-24T03:23:44.424Z,5.28
2022-09-24T03:26:11.368Z,4.95
2022-09-24T03:28:38.537Z,4.47
2022-09-24T03:31:06.172Z,4.63
2022-09-24T03:33:42.130Z,5.03
2022-09-24T03:36:12.099Z,4.88
2022-09-24T03:38:40.759Z,5.65
2022-09-24T03:41:08.626Z,5.43
2022-09-24T03:43:36.055Z,6.07
2022-09-24T03:46:04.224Z,5.70
2022-09-24T03:48:31.001Z,5.50
2022-09-24T03:51:02.677Z,5.30
2022-09-24T03:53:29.412Z,5.47
2022-09-24T03:55:57.097Z,5.00
2022-09-24T03:58:25.130Z,4.95
2022-09-24T04:00:55.508Z,5.35
2022-09-24T04:03:22.790Z,5.10
2022-09-24T04:05:51.337Z,5.10
2022-09-24T04:08:22.005Z,5.30
2022-09-24T04:10:49.951Z,5.20
2022-09-24T04:13:18.241Z,5.50
2022-09-24T04:15:45.450Z,5.43
2022-09-24T04:18:12.528Z,5.05
2022-09-24T04:20:39.806Z,4.78
2022-09-24T04:23:06.740Z,5.38
2022-09-24T04:25:34.224Z,5.13
2022-09-24T04:28:03.999Z,5.00
2022-09-24T04:30:32.743Z,4.78
2022-09-24T04:33:00.794Z,5.05
2022-09-24T04:35:29.957Z,5.45
2022-09-24T04:37:57.806Z,5.03
2022-09-24T04:40:24.806Z,5.13
2022-09-24T04:42:52.539Z,5.85
2022-09-24T04:45:20.333Z,5.32
2022-09-24T04:47:52.665Z,5.32
2022-09-24T04:50:20.486Z,4.82
2022-09-24T04:52:47.425Z,5.60
2022-09-24T04:55:14.480Z,5.15
2022-09-24T04:57:41.391Z,5.30
2022-09-24T05:00:14.690Z,5.35
2022-09-24T05:02:42.521Z,5.15
2022-09-24T05:05:09.712Z,4.93
2022-09-24T05:07:37.182Z,5.18
2022-09-24T05:10:05.016Z,5.07
2022-09-24T05:12:31.807Z,4.82
2022-09-24T05:14:58.601Z,5.28
2022-09-24T05:17:25.306Z,5.30
2022-09-24T05:19:52.300Z,4.97
2022-09-24T05:22:19.378Z,5.35
2022-09-24T05:24:46.119Z,5.60
2022-09-24T05:27:12.883Z,4.63
2022-09-24T05:29:41.381Z,5.20
2022-09-24T05:32:10.634Z,4.65
2022-09-24T05:34:37.487Z,4.90
2022-09-24T05:37:04.905Z,5.30
2022-09-24T05:39:34.087Z,5.10
2022-09-24T05:42:03.727Z,5.35
2022-09-24T05:44:33.583Z,6.05
2022-09-24T05:47:00.389Z,4.93
2022-09-24T05:49:27.204Z,5.32
2022-09-24T05:51:53.921Z,5.60
2022-09-24T05:54:20.720Z,5.53
2022-09-24T05:56:47.525Z,5.53
2022-09-24T05:59:14.348Z,4.95
2022-09-24T06:01:41.205Z,4.95
2022-09-24T06:04:09.322Z,4.72
2022-09-24T06:06:36.395Z,4.85
2022-09-24T06:09:04.117Z,5.60
2022-09-24T06:11:40.329Z,5.10
2022-09-24T06:14:09.017Z,5.75
2022-09-24T06:16:36.082Z,4.70
2022-09-24T06:19:02.957Z,6.43
2022-09-24T06:21:29.883Z,6.10
2022-09-24T06:23:56.655Z,5.90
2022-09-24T06:26:23.637Z,5.80
2022-09-24T06:28:50.391Z,6.53
2022-09-24T06:31:17.247Z,5.78
2022-09-24T06:33:44.017Z,6.10
2022-09-24T06:36:10.960Z,6.60
2022-09-24T06:38:40.391Z,5.63
2022-09-24T06:41:07.660Z,6.30
2022-09-24T06:43:35.129Z,5.53
2022-09-24T06:46:03.320Z,5.75
2022-09-24T06:48:31.232Z,5.82
2022-09-24T06:50:58.485Z,5.63
2022-09-24T06:53:25.860Z,5.10
2022-09-24T06:55:55.992Z,5.50
2022-09-24T06:58:23.716Z,6.15
2022-09-24T07:00:53.094Z,6.28
2022-09-24T07:03:20.704Z,5.93
2022-09-24T07:05:47.741Z,5.40
2022-09-24T07:08:14.525Z,6.13
2022-09-24T07:10:45.505Z,5.47
2022-09-24T07:13:13.690Z,6.32
2022-09-24T07:15:41.374Z,4.97
2022-09-24T07:18:08.938Z,5.50
2022-09-24T07:20:37.003Z,5.93
2022-09-24T07:23:05.391Z,5.70
2022-09-24T07:25:33.181Z,5.05
2022-09-24T07:28:11.495Z,5.05
2022-09-24T07:30:39.717Z,5.50
2022-09-24T07:33:09.723Z,5.60
2022-09-24T07:35:40.307Z,5.75
2022-09-24T07:38:12.114Z,5.95
2022-09-24T07:40:39.190Z,5.18
2022-09-24T07:43:13.655Z,5.75
2022-09-24T07:45:41.848Z,5.00
2022-09-24T07:48:10.803Z,5.32
2022-09-24T07:50:42.798Z,5.75
2022-09-24T07:53:13.271Z,5.38
2022-09-24T07:55:40.614Z,5.50
2022-09-24T07:58:16.459Z,6.32
2022-09-24T08:00:43.207Z,5.93
2022-09-24T08:03:10.800Z,5.80
2022-09-24T08:05:45.250Z,5.32
2022-09-24T08:08:12.373Z,5.80
2022-09-24T08:10:39.129Z,6.15
2022-09-24T08:13:05.875Z,5.28
2022-09-24T08:15:32.655Z,6.32
2022-09-24T08:18:03.485Z,5.45
2022-09-24T08:20:31.654Z,5.93
2022-09-24T08:23:02.349Z,5.22
2022-09-24T08:25:29.230Z,5.47
2022-09-24T08:27:55.933Z,5.63
2022-09-24T08:30:22.693Z,5.93
2022-09-24T08:32:49.435Z,5.10
2022-09-24T08:35:16.316Z,5.22
2022-09-24T08:37:43.052Z,5.57
2022-09-24T08:40:19.082Z,5.28
2022-09-24T08:42:54.594Z,5.57
2022-09-24T08:45:39.976Z,5.00
2022-09-24T08:48:17.236Z,5.82
2022-09-24T08:50:58.015Z,5.63
2022-09-24T08:53:51.105Z,4.97
2022-09-24T08:56:23.575Z,5.45
2022-09-24T08:59:16.396Z,5.13
2022-09-24T09:01:49.681Z,5.50
2022-09-24T09:04:35.293Z,5.35
2022-09-24T09:07:10.924Z,5.38
2022-09-24T09:09:54.397Z,6.13
2022-09-24T09:12:31.631Z,5.85
2022-09-24T09:15:26.405Z,7.28
2022-09-24T09:17:59.988Z,7.00
2022-09-24T09:20:31.794Z,6.63
2022-09-24T09:23:10.865Z,7.75
2022-09-24T09:25:43.362Z,7.85
2022-09-24T09:28:15.486Z,7.10
2022-09-24T09:31:22.516Z,7.60
2022-09-24T09:34:14.043Z,7.03
2022-09-24T09:37:25.713Z,7.63
2022-09-24T09:40:27.710Z,8.40
2022-09-24T09:43:09.123Z,8.52
2022-09-24T09:46:18.499Z,9.95
2022-09-24T09:48:52.256Z,8.48
2022-09-24T09:51:22.674Z,9.15
2022-09-24T09:54:01.251Z,9.60
2022-09-24T09:56:43.705Z,9.00
2022-09-24T09:59:13.434Z,10.05
2022-09-24T10:01:42.538Z,9.95
2022-09-24T10:04:24.376Z,9.68
2022-09-24T10:06:51.128Z,8.85
2022-09-24T10:09:20.955Z,10.27
2022-09-24T10:11:48.455Z,9.98
2022-09-24T10:14:19.200Z,11.07
2022-09-24T10:16:52.185Z,11.02
2022-09-24T10:21:47.272Z,9.73
2022-09-24T10:24:23.327Z,10.63
2022-09-24T10:26:50.549Z,11.20
2022-09-24T10:29:45.147Z,11.75
2022-09-24T10:32:20.641Z,10.80
2022-09-24T10:35:01.413Z,11.52
2022-09-24T10:37:29.302Z,9.60
2022-09-24T10:40:38.282Z,9.20
2022-09-24T10:43:06.834Z,10.23
2022-09-24T10:45:49.642Z,9.60
2022-09-24T10:48:38.764Z,10.98
2022-09-24T10:51:35.029Z,11.18
2022-09-24T10:54:01.790Z,10.45
2022-09-24T10:56:31.261Z,10.35
2022-09-24T10:59:22.712Z,11.90
2022-09-24T11:02:14.182Z,11.32
2022-09-24T11:04:51.732Z,11.18
2022-09-24T11:07:39.865Z,11.65
2022-09-24T11:10:10.327Z,13.30
2022-09-24T11:12:58.186Z,11.23
2022-09-24T11:15:27.758Z,10.55
2022-09-24T11:18:09.973Z,11.57
2022-09-24T11:20:39.441Z,10.38
2022-09-24T11:23:24.624Z,10.00
2022-09-24T11:26:29.269Z,10.60
2022-09-24T11:29:11.022Z,9.80
2022-09-24T11:31:59.728Z,11.25
2022-09-24T11:34:51.524Z,11.70
2022-09-24T11:37:32.429Z,12.73
2022-09-24T11:40:19.452Z,13.23
2022-09-24T11:43:20.033Z,13.90
2022-09-24T11:46:05.661Z,14.07
2022-09-24T11:48:57.022Z,14.50
2022-09-24T11:51:34.136Z,15.43
2022-09-24T11:54:10.529Z,16.77
2022-09-24T11:56:46.209Z,15.90
2022-09-24T11:59:24.941Z,18.95
2022-09-24T12:01:58.570Z,18.10
2022-09-24T12:04:40.425Z,16.17
2022-09-24T12:07:38.730Z,18.10
2022-09-24T12:10:29.866Z,18.35
2022-09-24T12:13:25.082Z,18.52
2022-09-24T12:16:00.943Z,20.70
2022-09-24T12:18:33.521Z,18.20
2022-09-24T12:21:08.721Z,18.63
2022-09-24T12:23:40.970Z,20.63
2022-09-24T12:26:08.961Z,21.52
2022-09-24T12:29:49.236Z,19.13
2022-09-24T12:32:51.598Z,20.60
2022-09-24T12:35:42.779Z,20.38
2022-09-24T12:38:32.637Z,17.63
2022-09-24T12:41:20.610Z,20.48
2022-09-24T12:43:59.545Z,17.23
2022-09-24T12:46:31.834Z,17.92
2022-09-24T12:48:59.596Z,16.88
2022-09-24T12:51:35.611Z,18.75
2022-09-24T12:54:09.330Z,17.92
2022-09-24T12:56:36.304Z,17.75
2022-09-24T12:59:05.688Z,18.83
2022-09-24T13:01:34.466Z,16.45
2022-09-24T13:04:15.129Z,17.20
2022-09-24T13:06:45.033Z,16.90
2022-09-24T13:09:26.245Z,16.38
2022-09-24T13:12:17.707Z,18.35
2022-09-24T13:15:02.830Z,18.73
2022-09-24T13:17:34.557Z,18.33
2022-09-24T13:20:17.053Z,17.83
2022-09-24T13:22:43.843Z,18.80
2022-09-24T13:25:10.689Z,20.27
2022-09-24T13:27:38.008Z,20.55
2022-09-24T13:30:40.414Z,20.23
2022-09-24T13:33:19.529Z,18.83
2022-09-24T13:36:06.590Z,21.48
2022-09-24T13:38:44.839Z,19.52
2022-09-24T13:41:20.755Z,20.17
2022-09-24T13:43:54.686Z,20.73
2022-09-24T13:46:22.386Z,19.13
2022-09-24T13:48:53.646Z,20.08
2022-09-24T13:51:27.645Z,18.52
2022-09-24T13:54:08.089Z,18.10
2022-09-24T13:56:35.027Z,19.90
2022-09-24T13:59:09.943Z,19.55
2022-09-24T14:01:42.386Z,19.27
2022-09-24T14:04:23.403Z,19.95
2022-09-24T14:06:56.165Z,20.55
2022-09-24T14:09:32.982Z,20.33
2022-09-24T14:12:03.146Z,21.05
2022-09-24T14:14:31.121Z,19.40
2022-09-24T14:17:18.123Z,19.90
2022-09-24T14:19:44.977Z,20.38
2022-09-24T14:22:42.908Z,21.92
2022-09-24T14:25:29.657Z,22.40
2022-09-24T14:27:59.264Z,24.08
2022-09-24T14:30:29.055Z,24.50
2022-09-24T14:32:59.860Z,25.15
2022-09-24T14:35:36.686Z,24.83
2022-09-24T14:38:08.900Z,25.67
2022-09-24T14:41:00.614Z,25.45
2022-09-24T14:43:31.525Z,26.85
2022-09-24T14:46:09.492Z,27.13
2022-09-24T14:48:36.403Z,26.15
2022-09-24T14:51:03.433Z,26.98
2022-09-24T14:53:36.127Z,27.65
2022-09-24T14:56:27.443Z,27.55
2022-09-24T14:58:54.279Z,27.92
2022-09-24T15:01:24.080Z,30.02
2022-09-24T15:03:54.396Z,28.67
2022-09-24T15:06:36.262Z,31.00
2022-09-24T15:09:23.435Z,30.95
2022-09-24T15:11:50.433Z,30.73
2022-09-24T15:14:21.260Z,29.60
2022-09-24T15:16:48.166Z,29.48
2022-09-24T15:19:21.778Z,28.90
2022-09-24T15:21:51.296Z,29.98
2022-09-24T15:24:19.883Z,31.00
2022-09-24T15:26:49.335Z,30.73
2022-09-24T15:29:23.924Z,31.23
2022-09-24T15:31:52.221Z,31.73
2022-09-24T15:34:20.516Z,30.40
2022-09-24T15:36:59.437Z,35.55
2022-09-24T15:39:31.911Z,31.35
2022-09-24T15:41:58.622Z,32.10
2022-09-24T15:44:32.951Z,31.08
2022-09-24T15:47:00.602Z,32.60
2022-09-24T15:49:27.415Z,35.67
2022-09-24T15:52:01.677Z,37.05
2022-09-24T15:54:28.998Z,36.47
2022-09-24T15:56:55.813Z,35.40
2022-09-24T15:59:23.518Z,36.85
2022-09-24T16:01:53.424Z,35.88
2022-09-24T16:04:20.449Z,32.45
2022-09-24T16:06:47.359Z,27.95
2022-09-24T16:09:14.165Z,19.10
2022-09-24T16:11:41.082Z,22.85
2022-09-24T16:14:09.103Z,21.60
2022-09-24T16:16:41.309Z,128.45
2022-09-24T16:19:08.624Z,33.47
2022-09-24T16:21:35.714Z,54.40
2022-09-24T16:24:03.287Z,33.45
2022-09-24T16:26:30.225Z,28.15
2022-09-24T16:28:57.350Z,19.23
2022-09-24T16:31:24.288Z,17.98
2022-09-24T16:33:51.100Z,19.27
2022-09-24T16:36:18.862Z,20.13
2022-09-24T16:38:45.733Z,19.50
2022-09-24T16:41:12.567Z,19.63
2022-09-24T16:43:39.428Z,21.15
2022-09-24T16:46:10.275Z,20.52
2022-09-24T16:48:37.759Z,20.23
2022-09-24T16:51:10.680Z,21.35
2022-09-24T16:53:38.432Z,22.70
2022-09-24T16:56:08.417Z,21.80
2022-09-24T16:58:35.664Z,23.25
2022-09-24T17:01:07.142Z,20.75
2022-09-24T17:03:34.406Z,22.85
2022-09-24T17:06:01.809Z,23.50
2022-09-24T17:09:06.055Z,24.58
2022-09-24T17:11:33.504Z,31.33
2022-09-24T17:14:00.825Z,37.00
2022-09-24T17:16:28.024Z,38.00
2022-09-24T17:18:55.751Z,40.35
2022-09-24T17:21:23.335Z,40.85
2022-09-24T17:23:50.896Z,40.63
2022-09-24T17:26:21.333Z,32.70
2022-09-24T17:28:51.518Z,27.13
2022-09-24T17:31:22.868Z,24.38
2022-09-24T17:34:01.798Z,23.27
2022-09-24T17:36:31.021Z,20.90
2022-09-24T17:38:59.360Z,20.92
2022-09-24T17:41:27.291Z,15.93
2022-09-24T17:43:58.454Z,16.30
2022-09-24T17:46:30.252Z,15.43
2022-09-24T17:48:59.789Z,16.55
2022-09-24T17:51:32.642Z,15.65
2022-09-24T17:54:01.377Z,16.02
2022-09-24T17:56:30.143Z,15.75
2022-09-24T17:58:57.186Z,16.25
2022-09-24T18:01:27.912Z,16.42
2022-09-24T18:03:56.797Z,15.25
2022-09-24T18:06:28.101Z,16.90
2022-09-24T18:08:57.927Z,15.30
2022-09-24T18:11:27.278Z,17.45
2022-09-24T18:13:58.788Z,16.20
2022-09-24T18:16:28.673Z,16.83
2022-09-24T18:18:55.949Z,16.75
2022-09-24T18:21:25.885Z,16.73
2022-09-24T18:23:54.555Z,16.60
2022-09-24T18:26:35.439Z,16.33
2022-09-24T18:29:05.944Z,18.52
2022-09-24T18:31:33.515Z,17.88
2022-09-24T18:34:06.810Z,19.42
2022-09-24T18:36:37.555Z,18.98
2022-09-24T18:39:06.888Z,19.40
2022-09-24T18:41:37.187Z,18.25
2022-09-24T18:44:04.589Z,19.15
2022-09-24T18:46:32.705Z,22.58
2022-09-24T18:49:00.570Z,21.25
2022-09-24T18:51:30.556Z,21.42
2022-09-24T18:53:58.976Z,22.92
2022-09-24T18:56:26.705Z,21.05
2022-09-24T18:59:18.783Z,20.85
2022-09-24T19:01:47.210Z,20.73
2022-09-24T19:04:14.601Z,19.50
2022-09-24T19:06:45.114Z,21.40
2022-09-24T19:09:14.333Z,22.02
2022-09-24T19:11:41.900Z,20.55
2022-09-24T19:14:11.077Z,21.90
2022-09-24T19:16:37.880Z,22.67
2022-09-24T19:19:04.727Z,22.30
2022-09-24T19:21:31.607Z,24.45
2022-09-24T19:23:58.961Z,24.48
2022-09-24T19:26:31.205Z,25.40
2022-09-24T19:28:58.562Z,25.50
2022-09-24T19:31:26.994Z,25.52
2022-09-24T19:33:54.309Z,24.40
2022-09-24T19:36:22.322Z,24.00
2022-09-24T19:38:50.158Z,23.77
2022-09-24T19:41:21.533Z,25.02
2022-09-24T19:43:50.945Z,24.48
2022-09-24T19:46:19.659Z,23.65
2022-09-24T19:48:48.688Z,23.77
2022-09-24T19:51:17.859Z,22.85
2022-09-24T19:53:48.819Z,21.58
2022-09-24T19:56:16.439Z,22.33
2022-09-24T19:58:47.282Z,22.05
2022-09-24T20:01:17.412Z,21.45
2022-09-24T20:03:45.277Z,20.95
2022-09-24T20:06:17.600Z,20.30
2022-09-24T20:08:44.831Z,20.38
2022-09-24T20:11:20.513Z,20.65
2022-09-24T20:13:48.586Z,21.10
2022-09-24T20:16:26.022Z,19.85
2022-09-24T20:18:57.596Z,19.23
2022-09-24T20:21:32.060Z,19.00
2022-09-24T20:23:59.352Z,18.80
2022-09-24T20:26:45.616Z,20.13
2022-09-24T20:29:13.948Z,17.85
2022-09-24T20:31:42.633Z,18.42
2022-09-24T20:34:09.572Z,18.40
2022-09-24T20:36:36.452Z,18.65
2022-09-24T20:39:04.109Z,18.35
2022-09-24T20:41:30.982Z,19.13
2022-09-24T20:43:57.823Z,19.83
2022-09-24T20:46:28.836Z,19.65
2022-09-24T20:49:00.631Z,21.45
2022-09-24T20:51:30.102Z,19.52
2022-09-24T20:53:59.047Z,20.42
2022-09-24T20:56:26.914Z,20.63
2022-09-24T20:58:54.159Z,21.60
2022-09-24T21:01:22.456Z,20.15
2022-09-24T21:03:50.170Z,21.85
2022-09-24T21:06:18.090Z,22.88
2022-09-24T21:08:46.517Z,21.92
2022-09-24T21:11:18.151Z,24.50
2022-09-24T21:13:53.156Z,25.85
2022-09-24T21:16:25.905Z,31.25
2022-09-24T21:18:56.381Z,29.88
2022-09-24T21:21:24.824Z,84.78
2022-09-24T21:23:54.277Z,32.03
2022-09-24T21:26:23.628Z,29.17
2022-09-24T21:28:52.377Z,28.83
2022-09-24T21:31:25.242Z,27.30
2022-09-24T21:33:53.385Z,28.92
2022-09-24T21:36:24.132Z,29.15
2022-09-24T21:38:57.913Z,28.08
2022-09-24T21:41:27.223Z,26.92
2022-09-24T21:43:55.597Z,27.75
2022-09-24T21:46:23.718Z,26.92
2022-09-24T21:48:54.012Z,28.75
2022-09-24T21:51:22.205Z,28.85
2022-09-24T21:53:50.993Z,28.60
2022-09-24T21:56:19.372Z,28.65
2022-09-24T21:58:50.468Z,30.77
2022-09-24T22:01:26.388Z,31.75
2022-09-24T22:03:58.520Z,30.77
2022-09-24T22:06:29.049Z,29.92
2022-09-24T22:09:05.735Z,27.67
2022-09-24T22:11:34.551Z,29.35
2022-09-24T22:14:02.306Z,27.95
2022-09-24T22:16:31.170Z,28.27
2022-09-24T22:18:58.726Z,28.65
2022-09-24T22:21:26.227Z,28.27
2022-09-24T22:23:53.415Z,30.40
2022-09-24T22:26:20.248Z,28.00
2022-09-24T22:28:47.174Z,28.85
2022-09-24T22:31:16.686Z,27.83
2022-09-24T22:34:02.845Z,30.25
2022-09-24T22:36:31.234Z,28.23
2022-09-24T22:38:59.571Z,32.42
2022-09-24T22:41:29.010Z,31.00
2022-09-24T22:43:59.374Z,30.00
2022-09-24T22:46:27.456Z,34.78
2022-09-24T22:48:57.866Z,35.45
2022-09-24T22:51:27.067Z,34.70
2022-09-24T22:53:54.677Z,37.35
2022-09-24T22:56:26.536Z,37.58
2022-09-24T22:58:58.302Z,36.95
2022-09-24T23:01:26.520Z,39.97
2022-09-24T23:03:55.638Z,41.35
2022-09-24T23:06:23.397Z,42.50
2022-09-24T23:08:51.268Z,40.83
2022-09-24T23:11:24.449Z,43.17
2022-09-24T23:14:01.367Z,48.60
2022-09-24T23:16:30.612Z,44.53
2022-09-24T23:18:59.555Z,47.60
2022-09-24T23:21:28.403Z,47.17
2022-09-24T23:23:57.130Z,50.85
2022-09-24T23:26:25.340Z,50.60
2022-09-24T23:28:53.353Z,50.63
2022-09-24T23:31:22.870Z,49.35
2022-09-24T23:33:50.038Z,51.08
2022-09-24T23:36:17.750Z,52.10
2022-09-24T23:38:44.669Z,50.60
2022-09-24T23:41:12.811Z,51.72
2022-09-24T23:43:41.157Z,51.90
2022-09-24T23:46:08.566Z,52.60
2022-09-24T23:48:35.422Z,50.60
2022-09-24T23:51:03.325Z,49.50
2022-09-24T23:53:30.321Z,51.35
2022-09-24T23:55:57.026Z,52.05
2022-09-24T23:58:24.471Z,49.72
